Morro Bay, CA

5:34 PM PDT on October 25, 2014 (GMT -0700)
Bonita and Hwy 1 | Change Station
CLOSE
Current Station
Personal Weather Station
Location: Morro Bay, CA
Elevation: 45 ft
Nearby Weather Stations
Active Advisory: High Surf Advisory

Elev 45 ft 35.39 °N, 120.86 °W | Updated 3 seconds ago

Partly Cloudy
Partly Cloudy
69.6 °F
Feels Like 69.6 °F
N
5.0
Wind Variable Wind from WSW
Gusts 8.0 mph

Today
High -- | Low -- °F
--% Chance of Precip.
Yesterday
High -- | Low -- °F
Precip. -- in
7:18 AM 6:15 PM
Waxing Crescent, 5% visible
Pressure 30.04 in
Visibility 10.0 miles
Clouds Clear
Dew Point 62 °F
Humidity 77%
Rainfall 0.00 in
Snow Depth Not available.
UV 1 out of 12
Pollen 4.00 out of 12
Air Quality Not available.
Flu Activity Sporadic
METAR KSBP 252356Z 31014KT 10SM CLR 21/13 A3005 RMK AO2 SLP173 T02110133 10239 20206 56012

More Conditions Fewer Conditions

Pressure 30.04 in
Visibility 10.0 miles
Clouds Clear
Dew Point 62 °F
Humidity 77%
Rainfall 0.00 in
Snow Depth Not available.
UV 1 out of 12
Pollen 4.00 out of 12
Air Quality Not available.
Flu Activity Sporadic
METAR KSBP 252356Z 31014KT 10SM CLR 21/13 A3005 RMK AO2 SLP173 T02110133 10239 20206 56012

More Conditions Fewer Conditions

10-Day Weather Forecast

Almanac

Astronomy

Oct. 25, 2014 Rise Set
Actual Time 7:18 AM PDT 6:15 PM PDT
Civil Twilight 6:52 AM PDT 6:41 PM PDT
Nautical Twilight 6:22 AM PDT 7:11 PM PDT
Astronomical Twilight 5:53 AM PDT 7:41 PM PDT
Moon 8:59 AM PDT (10/25) 7:46 PM PDT (10/25)
Length of Visible Light 11h 49m
Length of Day
10h 57m
Tomorrow will be 2m 2s shorter.
Waxing Crescent, 5% of the Moon is Illuminated
Today
Waxing Crescent
Oct 30
First Quarter
Nov 6
Full
Nov 14
Last Quarter
Nov 22
New

Today's Extremes

State Highs State Lows

Community

WunderPhotos

Upload Photos

1,765,052 photos uploaded!

Nearby

Snow Depth

Station Depth Elevation
Virginia Lakes Ridge 0 in 9200 ft
Leavitt Lake 1 in 9400 ft
Sonora Pass 0 in 8800 ft
Leavitt Meadows 0 in 7200 ft
Poison Flat 0 in 7900 ft

Earthquake Activity

City Distance Mag. Time & Date
Coalinga, California 44 miles 2.5 11:01 PM PDT
2014-10-24
Solvang, California 77 miles 2.6 5:35 PM PDT
2014-10-22
Kettleman City, California 67 miles 2.5 9:08 AM PDT
2014-10-22
Minimum magnitude displayed is 2.5.

Coastal Water Temperatures

Place Temperature
No Stations Reporting

Nearby Weather Stations